createdAt,value
2023-05-23T00:02:03.337Z,11.97
2023-05-23T00:07:05.153Z,12.20
2023-05-23T00:12:07.234Z,12.27
2023-05-23T00:17:10.844Z,11.47
2023-05-23T00:22:13.258Z,12.52
2023-05-23T00:27:15.041Z,13.63
2023-05-23T00:32:16.982Z,13.17
2023-05-23T00:37:18.718Z,12.20
2023-05-23T00:42:20.434Z,13.02
2023-05-23T00:47:22.235Z,13.68
2023-05-23T00:52:24.760Z,13.00
2023-05-23T00:57:26.581Z,13.45
2023-05-23T01:02:32.277Z,13.82
2023-05-23T01:07:34.068Z,13.93
2023-05-23T01:13:20.428Z,13.48
2023-05-23T01:18:33.562Z,14.35
2023-05-23T01:24:07.992Z,13.88
2023-05-23T01:29:26.906Z,14.82
2023-05-23T01:34:30.492Z,14.25
2023-05-23T01:39:33.925Z,15.35
2023-05-23T01:44:36.422Z,14.90
2023-05-23T01:54:42.579Z,14.32
2023-05-23T01:59:45.425Z,14.65
2023-05-23T02:04:49.462Z,14.60
2023-05-23T02:09:54.417Z,14.57
2023-05-23T02:19:59.001Z,14.23
2023-05-23T02:25:00.742Z,15.98
2023-05-23T02:30:02.484Z,14.18
2023-05-23T02:35:05.557Z,14.30
2023-05-23T02:40:08.066Z,15.63
2023-05-23T02:45:11.377Z,15.38
2023-05-23T02:50:13.846Z,14.95
2023-05-23T02:55:15.769Z,15.68
2023-05-23T03:00:21.655Z,16.52
2023-05-23T03:05:28.587Z,16.92
2023-05-23T03:10:30.700Z,16.60
2023-05-23T03:15:32.584Z,16.42
2023-05-23T03:20:35.650Z,18.05
2023-05-23T03:25:37.493Z,17.17
2023-05-23T03:30:40.434Z,16.88
2023-05-23T03:35:42.587Z,19.17
2023-05-23T03:40:44.635Z,19.15
2023-05-23T03:45:47.545Z,20.13
2023-05-23T03:50:52.272Z,19.92
2023-05-23T03:55:54.286Z,20.90
2023-05-23T04:00:56.724Z,19.75
2023-05-23T04:06:01.020Z,21.40
2023-05-23T04:11:03.411Z,19.23
2023-05-23T04:16:10.845Z,19.25
2023-05-23T04:26:24.126Z,19.38
2023-05-23T04:31:28.205Z,19.55
2023-05-23T04:36:30.302Z,19.33
2023-05-23T04:41:32.541Z,21.17
2023-05-23T04:46:34.442Z,22.48
2023-05-23T04:51:47.370Z,22.95
2023-05-23T04:56:56.393Z,23.00
2023-05-23T05:02:00.309Z,23.30
2023-05-23T05:07:04.206Z,23.20
2023-05-23T05:12:06.458Z,22.52
2023-05-23T05:17:08.743Z,22.85
2023-05-23T05:22:29.689Z,22.80
2023-05-23T05:27:31.596Z,20.93
2023-05-23T05:32:33.798Z,21.73
2023-05-23T05:37:37.024Z,21.80
2023-05-23T05:42:39.606Z,21.58
2023-05-23T05:47:41.906Z,22.05
2023-05-23T05:52:43.928Z,21.83
2023-05-23T05:57:47.073Z,21.95
2023-05-23T06:02:51.973Z,22.67
2023-05-23T06:08:05.063Z,23.65
2023-05-23T06:13:06.996Z,22.40
2023-05-23T06:18:09.686Z,23.35
2023-05-23T06:23:11.880Z,22.52
2023-05-23T06:28:15.430Z,21.63
2023-05-23T06:33:17.348Z,21.97
2023-05-23T06:38:19.408Z,22.20
2023-05-23T06:43:21.176Z,22.38
2023-05-23T06:48:35.306Z,23.02
2023-05-23T06:53:37.079Z,22.93
2023-05-23T06:58:39.404Z,21.92
2023-05-23T07:03:44.409Z,21.40
2023-05-23T07:08:47.274Z,18.75
2023-05-23T07:13:50.776Z,20.75
2023-05-23T07:19:01.852Z,20.45
2023-05-23T07:24:06.065Z,19.90
2023-05-23T07:34:10.373Z,21.77
2023-05-23T07:39:25.853Z,21.08
2023-05-23T07:44:29.196Z,21.95
2023-05-23T07:49:31.165Z,21.52
2023-05-23T07:54:33.882Z,19.67
2023-05-23T07:59:38.544Z,20.35
2023-05-23T08:04:40.920Z,19.73
2023-05-23T08:09:43.331Z,18.08
2023-05-23T08:14:54.531Z,20.40
2023-05-23T08:20:05.260Z,20.15
2023-05-23T08:25:08.359Z,17.73
2023-05-23T08:30:13.348Z,18.63
2023-05-23T08:35:15.358Z,16.10
2023-05-23T08:40:22.300Z,17.87
2023-05-23T08:45:37.349Z,15.93
2023-05-23T08:50:40.937Z,17.77
2023-05-23T08:55:43.144Z,13.90
2023-05-23T09:00:45.967Z,17.48
2023-05-23T09:05:50.298Z,15.90
2023-05-23T09:10:54.711Z,16.35
2023-05-23T09:16:09.285Z,13.57
2023-05-23T09:21:24.714Z,15.40
2023-05-23T09:26:41.304Z,17.20
2023-05-23T09:31:44.348Z,16.40
2023-05-23T09:36:46.781Z,15.00
2023-05-23T09:41:49.449Z,13.32
2023-05-23T09:46:54.540Z,12.80
2023-05-23T09:52:01.313Z,14.02
2023-05-23T09:57:06.107Z,13.77
2023-05-23T10:02:12.031Z,13.13
2023-05-23T10:07:18.063Z,11.95
2023-05-23T10:12:23.209Z,10.52
2023-05-23T10:17:33.370Z,11.40
2023-05-23T10:22:37.010Z,12.13
2023-05-23T10:27:39.689Z,12.77
2023-05-23T10:32:42.777Z,13.02
2023-05-23T10:37:57.075Z,13.00
2023-05-23T10:43:10.635Z,13.00
2023-05-23T10:48:33.079Z,12.60
2023-05-23T10:53:54.593Z,12.87
2023-05-23T10:58:58.393Z,12.82
2023-05-23T11:04:05.533Z,14.27
2023-05-23T11:09:12.083Z,14.13
2023-05-23T11:14:13.961Z,13.45
2023-05-23T11:19:18.807Z,12.80
2023-05-23T11:24:20.951Z,11.75
2023-05-23T11:29:22.864Z,11.90
2023-05-23T11:34:27.756Z,11.93
2023-05-23T11:39:29.531Z,11.57
2023-05-23T11:44:31.232Z,11.57
2023-05-23T11:49:35.650Z,11.77
2023-05-23T11:54:41.207Z,10.27
2023-05-23T11:59:44.434Z,11.25
2023-05-23T12:04:46.200Z,11.13
2023-05-23T12:09:48.236Z,11.82
2023-05-23T12:14:50.197Z,12.15
2023-05-23T12:19:53.015Z,12.40
2023-05-23T12:24:58.250Z,12.20
2023-05-23T12:30:09.513Z,11.30
2023-05-23T12:35:14.022Z,10.80
2023-05-23T12:40:18.027Z,12.15
2023-05-23T12:45:24.761Z,10.85
2023-05-23T12:50:26.525Z,10.50
2023-05-23T12:55:28.298Z,10.90
2023-05-23T13:00:30.071Z,9.20
2023-05-23T13:05:31.974Z,8.73
2023-05-23T13:10:33.731Z,8.93
2023-05-23T13:15:35.507Z,8.07
2023-05-23T13:20:37.733Z,8.70
2023-05-23T13:25:39.582Z,8.40
2023-05-23T13:30:43.511Z,7.82
2023-05-23T13:35:49.244Z,7.38
2023-05-23T13:40:51.807Z,7.13
2023-05-23T13:53:58.589Z,6.25
2023-05-23T13:59:01.156Z,5.72
2023-05-23T14:04:04.747Z,5.95
2023-05-23T14:09:07.964Z,5.35
2023-05-23T14:14:15.567Z,5.63
2023-05-23T14:19:17.483Z,5.37
2023-05-23T14:24:19.500Z,5.60
2023-05-23T14:29:21.465Z,5.22
2023-05-23T14:34:23.163Z,5.00
2023-05-23T14:39:25.647Z,4.73
2023-05-23T14:44:28.116Z,3.80
2023-05-23T14:54:33.061Z,3.83
2023-05-23T14:59:35.215Z,3.63
2023-05-23T15:04:37.331Z,3.58
2023-05-23T15:09:39.470Z,3.67
2023-05-23T15:14:43.288Z,3.75
2023-05-23T15:19:46.065Z,3.40
2023-05-23T15:24:47.942Z,3.50
2023-05-23T15:29:49.716Z,3.30
2023-05-23T15:34:51.795Z,3.60
2023-05-23T15:39:53.584Z,3.17
2023-05-23T15:44:55.392Z,3.20
2023-05-23T15:49:57.137Z,3.10
2023-05-23T15:54:58.995Z,3.07
2023-05-23T16:00:00.973Z,3.27
2023-05-23T16:05:02.744Z,3.30
2023-05-23T16:10:05.215Z,3.20
2023-05-23T16:15:07.610Z,2.95
2023-05-23T16:20:09.908Z,2.97
2023-05-23T16:25:11.723Z,3.40
2023-05-23T16:30:13.639Z,2.50
2023-05-23T16:35:15.604Z,2.10
2023-05-23T16:40:19.478Z,2.20
2023-05-23T16:45:21.638Z,2.50
2023-05-23T16:50:23.402Z,2.40
2023-05-23T16:55:25.436Z,2.42
2023-05-23T17:00:27.238Z,2.60
2023-05-23T17:05:29.233Z,2.53
2023-05-23T17:10:31.099Z,2.40
2023-05-23T17:15:32.878Z,2.63
2023-05-23T17:20:34.757Z,2.50
2023-05-23T17:25:37.248Z,2.23
2023-05-23T17:30:39.009Z,2.50
2023-05-23T17:35:40.765Z,2.80
2023-05-23T17:40:42.919Z,2.63
2023-05-23T17:45:45.134Z,2.75
2023-05-23T17:50:47.752Z,2.30
2023-05-23T17:55:49.458Z,2.40
2023-05-23T18:00:51.895Z,2.63
2023-05-23T18:10:55.609Z,2.40
2023-05-23T18:15:57.474Z,2.70
2023-05-23T18:20:59.270Z,2.63
2023-05-23T18:26:01.004Z,2.77
2023-05-23T18:31:02.869Z,2.78
2023-05-23T18:36:04.770Z,2.60
2023-05-23T18:41:06.663Z,2.50
2023-05-23T18:46:08.830Z,2.70
2023-05-23T18:51:12.220Z,2.53
2023-05-23T18:56:13.951Z,2.50
2023-05-23T19:01:16.627Z,2.97
2023-05-23T19:06:18.709Z,2.92
2023-05-23T19:11:20.455Z,2.80
2023-05-23T19:16:22.270Z,3.03
2023-05-23T19:21:24.328Z,3.27
2023-05-23T19:26:26.040Z,2.67
2023-05-23T19:31:28.419Z,2.90
2023-05-23T19:36:30.362Z,3.03
2023-05-23T19:41:35.433Z,2.80
2023-05-23T19:46:37.708Z,2.78
2023-05-23T19:51:39.517Z,2.90
2023-05-23T20:01:44.171Z,3.00
2023-05-23T20:06:46.380Z,3.10
2023-05-23T20:11:48.243Z,2.80
2023-05-23T20:16:50.023Z,3.00
2023-05-23T20:21:51.846Z,5.20
2023-05-23T20:26:53.645Z,3.10
2023-05-23T20:31:56.092Z,3.17
2023-05-23T20:36:57.828Z,3.00
2023-05-23T20:41:59.711Z,3.25
2023-05-23T20:47:02.376Z,3.23
2023-05-23T20:52:05.448Z,3.10
2023-05-23T20:57:07.353Z,3.33
2023-05-23T21:02:09.118Z,3.28
2023-05-23T21:07:11.131Z,3.33
2023-05-23T21:12:12.918Z,3.40
2023-05-23T21:17:16.101Z,3.10
2023-05-23T21:22:17.935Z,3.33
2023-05-23T21:27:19.669Z,3.53
2023-05-23T21:32:22.335Z,3.22
2023-05-23T21:37:24.443Z,3.10
2023-05-23T21:42:26.426Z,3.20
2023-05-23T21:47:28.379Z,2.90
2023-05-23T21:52:30.745Z,2.73
2023-05-23T21:57:32.500Z,2.83
2023-05-23T22:02:34.356Z,2.60
2023-05-23T22:07:36.634Z,3.13
2023-05-23T22:12:38.848Z,2.85
2023-05-23T22:17:43.710Z,3.25
2023-05-23T22:22:45.803Z,3.10
2023-05-23T22:27:47.650Z,3.30
2023-05-23T22:32:49.728Z,3.97
2023-05-23T22:37:51.606Z,2.80
2023-05-23T22:42:53.331Z,3.50
2023-05-23T22:47:55.111Z,3.42
2023-05-23T22:52:58.310Z,3.63
2023-05-23T22:58:00.454Z,3.60
2023-05-23T23:03:02.741Z,3.50
2023-05-23T23:08:06.019Z,3.65
2023-05-23T23:13:07.762Z,3.75
2023-05-23T23:18:09.826Z,3.80
2023-05-23T23:23:11.699Z,3.83
2023-05-23T23:28:13.410Z,4.30
2023-05-23T23:33:15.632Z,4.25
2023-05-23T23:38:18.414Z,4.60
2023-05-23T23:48:21.948Z,4.32
2023-05-23T23:53:23.789Z,4.00
2023-05-23T23:58:26.313Z,3.90
